Time;durP1;ratioP1;P1;durP2;ratioP2;P2;SDS_P1;SDS_P2;PMS_P1;PMS_P2;Temp;Humidity;BMP_temperature;BMP_pressure;BME280_temperature;BME280_humidity;BME280_pressure;Samples;Min_cycle;Max_cycle;Signal;HPM_P1;HPM_P2
2023/04/25 00:01:47;;;;;;;4.22;2.90;;;13.60;70.40;;;;;;4998752;28;20451;-74
2023/04/25 00:04:13;;;;;;;4.22;3.00;;;13.60;70.40;;;;;;4998952;28;20038;-74
2023/04/25 00:06:39;;;;;;;5.15;3.20;;;13.60;70.60;;;;;;4998580;28;20444;-75
2023/04/25 00:09:09;;;;;;;5.28;3.53;;;13.50;70.60;;;;;;4998673;28;20443;-74
2023/04/25 00:11:36;;;;;;;6.82;4.25;;;13.50;71.00;;;;;;4998337;28;20022;-74
2023/04/25 00:14:03;;;;;;;6.68;3.88;;;13.40;71.70;;;;;;4998247;28;20022;-74
2023/04/25 00:16:33;;;;;;;6.55;3.70;;;13.40;71.80;;;;;;4998192;28;20026;-74
2023/04/25 00:19:01;;;;;;;8.43;3.20;;;13.30;71.60;;;;;;4998455;28;20046;-74
2023/04/25 00:21:28;;;;;;;4.68;3.30;;;13.30;71.60;;;;;;4999504;28;20022;-74
2023/04/25 00:23:54;;;;;;;6.05;3.42;;;13.20;71.50;;;;;;5002880;28;20030;-74
2023/04/25 00:26:20;;;;;;;6.75;3.60;;;13.20;71.50;;;;;;5000544;28;20119;-74
2023/04/25 00:28:47;;;;;;;5.47;3.40;;;13.20;71.50;;;;;;5001367;28;20070;-74
2023/04/25 00:31:13;;;;;;;6.18;3.45;;;13.20;71.50;;;;;;4998126;28;20023;-74
2023/04/25 00:33:39;;;;;;;6.40;3.53;;;13.20;71.50;;;;;;4998099;28;20037;-74
2023/04/25 00:36:06;;;;;;;4.65;3.55;;;13.10;71.60;;;;;;4998233;28;20332;-74
2023/04/25 00:38:32;;;;;;;4.90;2.90;;;13.10;71.60;;;;;;4997679;28;20462;-74
2023/04/25 00:40:58;;;;;;;5.30;3.28;;;13.10;71.60;;;;;;4997952;28;20391;-74
2023/04/25 00:43:27;;;;;;;7.45;3.83;;;13.10;71.80;;;;;;4997945;28;20034;-74
2023/04/25 00:45:54;;;;;;;5.45;3.45;;;13.10;72.30;;;;;;4997545;28;20036;-74
2023/04/25 00:48:22;;;;;;;6.47;4.03;;;13.00;72.60;;;;;;4997746;28;20072;-74
2023/04/25 00:50:54;;;;;;;5.68;3.53;;;13.00;73.10;;;;;;4997451;28;20030;-74
2023/04/25 00:53:21;;;;;;;5.97;3.55;;;12.90;73.10;;;;;;4997933;28;20042;-74
2023/04/25 00:55:50;;;;;;;4.75;3.20;;;12.90;72.80;;;;;;4997437;28;20038;-74
2023/04/25 00:58:20;;;;;;;4.25;2.97;;;12.90;73.30;;;;;;4997261;28;20058;-74
2023/04/25 01:00:47;;;;;;;4.22;2.80;;;12.90;73.20;;;;;;4997570;28;20031;-74
2023/04/25 01:03:17;;;;;;;4.32;3.10;;;12.90;72.70;;;;;;4997532;28;20074;-74
2023/04/25 01:05:43;;;;;;;5.05;3.40;;;12.90;73.10;;;;;;4997190;28;20115;-74
2023/04/25 01:08:09;;;;;;;5.63;3.58;;;12.90;73.30;;;;;;4997045;28;20038;-74
2023/04/25 01:10:36;;;;;;;5.55;3.47;;;12.80;73.60;;;;;;4997374;28;20058;-74
2023/04/25 01:13:03;;;;;;;4.88;3.25;;;12.80;73.60;;;;;;4997084;28;20467;-74
2023/04/25 01:15:29;;;;;;;4.60;3.30;;;12.70;73.80;;;;;;4997031;28;20105;-74
2023/04/25 01:17:56;;;;;;;4.35;3.03;;;12.70;73.80;;;;;;4996583;28;20026;-74
2023/04/25 01:20:23;;;;;;;4.50;3.22;;;12.60;73.80;;;;;;4996931;28;20023;-74
2023/04/25 01:22:50;;;;;;;6.10;3.35;;;12.60;73.90;;;;;;4997162;28;20113;-74
2023/04/25 01:25:16;;;;;;;4.57;3.17;;;12.60;74.20;;;;;;4996839;28;20145;-74
2023/04/25 01:27:43;;;;;;;3.72;2.67;;;12.50;74.20;;;;;;4996906;28;20057;-74
2023/04/25 01:30:09;;;;;;;4.90;3.05;;;12.50;73.80;;;;;;4997330;28;20049;-74
2023/04/25 01:32:39;;;;;;;3.83;2.50;;;12.60;74.30;;;;;;4996538;28;20112;-74
2023/04/25 01:35:10;;;;;;;5.85;2.90;;;12.50;74.10;;;;;;4996971;28;20027;-74
2023/04/25 01:37:40;;;;;;;3.10;2.60;;;12.50;73.60;;;;;;4996738;28;20033;-74
2023/04/25 01:40:08;;;;;;;4.10;2.90;;;12.50;73.50;;;;;;4996976;28;20109;-74
2023/04/25 01:42:35;;;;;;;3.83;3.03;;;12.50;73.80;;;;;;4996826;28;20030;-74
2023/04/25 01:45:02;;;;;;;4.07;2.75;;;12.40;73.60;;;;;;4996552;28;20346;-74
2023/04/25 01:47:28;;;;;;;5.15;3.08;;;12.50;73.80;;;;;;4996402;28;20444;-74
2023/04/25 01:49:55;;;;;;;3.42;2.63;;;12.40;74.00;;;;;;4996695;28;20026;-74
2023/04/25 01:52:21;;;;;;;4.78;3.00;;;12.40;74.10;;;;;;4996660;28;20097;-74
2023/04/25 01:54:47;;;;;;;4.03;2.70;;;12.40;74.10;;;;;;4996911;28;20026;-74
2023/04/25 01:57:13;;;;;;;3.13;2.50;;;12.40;73.80;;;;;;4996097;28;20061;-74
2023/04/25 01:59:40;;;;;;;4.35;2.47;;;12.40;73.60;;;;;;4996566;28;20030;-74
2023/04/25 02:02:06;;;;;;;2.80;2.42;;;12.40;73.50;;;;;;4996584;28;20073;-74
2023/04/25 02:04:33;;;;;;;4.38;2.50;;;12.40;73.70;;;;;;4996779;28;20096;-74
2023/04/25 02:06:59;;;;;;;3.25;2.55;;;12.40;73.60;;;;;;4996068;28;20083;-74
2023/04/25 02:09:25;;;;;;;2.53;2.03;;;12.40;73.70;;;;;;4996663;28;20026;-74
2023/04/25 02:11:50;;;;;;;2.25;2.00;;;12.40;73.40;;;;;;4996390;28;20018;-74
2023/04/25 02:14:16;;;;;;;2.35;1.88;;;12.40;73.30;;;;;;4996659;28;20347;-74
2023/04/25 02:16:43;;;;;;;2.42;2.13;;;12.40;73.30;;;;;;4996490;28;20037;-74
2023/04/25 02:19:10;;;;;;;2.22;2.03;;;12.40;73.30;;;;;;4996367;28;20034;-74
2023/04/25 02:21:37;;;;;;;2.47;1.98;;;12.50;73.20;;;;;;4996298;28;20023;-74
2023/04/25 02:24:03;;;;;;;2.25;2.05;;;12.50;73.10;;;;;;4996005;28;20022;-74
2023/04/25 02:26:30;;;;;;;5.10;2.63;;;12.50;72.90;;;;;;4995756;28;20030;-74
2023/04/25 02:28:58;;;;;;;2.80;1.90;;;12.50;73.30;;;;;;4995978;28;20352;-74
2023/04/25 02:31:24;;;;;;;3.25;2.42;;;12.50;73.00;;;;;;4995957;28;20461;-74
2023/04/25 02:33:50;;;;;;;3.88;2.33;;;12.40;73.10;;;;;;4995918;28;20027;-73
2023/04/25 02:36:16;;;;;;;3.60;2.67;;;12.40;73.10;;;;;;4995774;28;20019;-73
2023/04/25 02:38:42;;;;;;;3.80;2.40;;;12.40;73.20;;;;;;4995837;28;20097;-74
2023/04/25 02:41:08;;;;;;;2.80;1.80;;;12.40;73.30;;;;;;4995835;28;20054;-74
2023/04/25 02:43:33;;;;;;;4.45;2.50;;;12.30;73.40;;;;;;4995809;28;20101;-74
2023/04/25 02:45:59;;;;;;;3.47;2.30;;;12.30;73.60;;;;;;4999120;28;20109;-74
2023/04/25 02:48:25;;;;;;;3.30;2.50;;;12.30;73.40;;;;;;5000451;28;20113;-74
2023/04/25 02:50:51;;;;;;;4.55;2.78;;;12.20;73.40;;;;;;4999997;28;20030;-74
2023/04/25 02:53:17;;;;;;;2.15;1.80;;;12.20;73.30;;;;;;5000253;28;20036;-74
2023/04/25 02:55:43;;;;;;;1.98;1.67;;;12.20;73.30;;;;;;4999676;28;20034;-74
2023/04/25 02:58:10;;;;;;;2.35;2.13;;;12.20;73.10;;;;;;4999341;28;20054;-74
2023/04/25 03:00:36;;;;;;;3.33;2.17;;;12.30;73.10;;;;;;4999592;28;20037;-74
2023/04/25 03:03:01;;;;;;;2.97;2.08;;;12.30;73.10;;;;;;4999571;28;20113;-73
2023/04/25 03:05:27;;;;;;;2.58;1.88;;;12.30;73.00;;;;;;4999559;28;20030;-74
2023/04/25 03:07:53;;;;;;;2.40;2.10;;;12.30;72.90;;;;;;4999388;28;20038;-74
2023/04/25 03:10:19;;;;;;;2.08;1.85;;;12.30;72.80;;;;;;4999915;28;20022;-73
2023/04/25 03:12:45;;;;;;;2.25;1.80;;;12.40;72.80;;;;;;4999886;28;20149;-73
2023/04/25 03:15:11;;;;;;;2.17;1.90;;;12.40;72.70;;;;;;4999598;28;20321;-74
2023/04/25 03:17:37;;;;;;;3.88;1.92;;;12.40;72.70;;;;;;4999227;28;20452;-74
2023/04/25 03:20:04;;;;;;;2.20;1.90;;;12.40;72.60;;;;;;4999463;28;20452;-74
2023/04/25 03:22:29;;;;;;;1.88;1.73;;;12.40;72.60;;;;;;4999228;28;20037;-73
2023/04/25 03:24:55;;;;;;;2.45;2.00;;;12.40;72.50;;;;;;4999214;28;20105;-74
2023/04/25 03:27:21;;;;;;;2.20;1.90;;;12.40;72.50;;;;;;4999268;28;20058;-73
2023/04/25 03:29:47;;;;;;;2.05;1.90;;;12.50;72.60;;;;;;4999110;28;20022;-73
2023/04/25 03:32:13;;;;;;;2.78;2.20;;;12.50;72.60;;;;;;4999295;28;20022;-74
2023/04/25 03:34:39;;;;;;;3.00;2.00;;;12.50;72.70;;;;;;4998991;28;20029;-74
2023/04/25 03:37:05;;;;;;;4.57;2.30;;;12.50;72.60;;;;;;4999397;28;20026;-74
2023/04/25 03:39:31;;;;;;;4.93;2.60;;;12.50;72.70;;;;;;4997934;28;20351;-73
2023/04/25 03:41:57;;;;;;;2.97;2.30;;;12.50;72.90;;;;;;4999112;28;20038;-74
2023/04/25 03:44:24;;;;;;;4.07;2.65;;;12.50;72.80;;;;;;4998822;28;20026;-74
2023/04/25 03:46:50;;;;;;;3.83;2.65;;;12.40;73.30;;;;;;4998876;28;20100;-74
2023/04/25 03:49:16;;;;;;;4.15;3.10;;;12.40;73.80;;;;;;4998723;28;20387;-74
2023/04/25 03:51:42;;;;;;;3.88;2.70;;;12.30;73.60;;;;;;4998988;28;20026;-74
2023/04/25 03:54:08;;;;;;;4.80;3.03;;;12.30;73.70;;;;;;4998927;28;20033;-74
2023/04/25 03:56:34;;;;;;;5.10;2.70;;;12.30;74.10;;;;;;4998060;28;20058;-73
2023/04/25 03:59:00;;;;;;;4.38;2.67;;;12.20;74.10;;;;;;4999430;28;20030;-74
2023/04/25 04:01:26;;;;;;;4.60;2.42;;;12.10;74.40;;;;;;5002438;28;20033;-74
2023/04/25 04:03:51;;;;;;;4.85;2.72;;;12.10;74.50;;;;;;5003077;28;20105;-73
2023/04/25 04:06:18;;;;;;;4.63;2.80;;;12.10;74.60;;;;;;5003064;28;20042;-74
2023/04/25 04:08:44;;;;;;;3.97;2.70;;;12.00;74.80;;;;;;5003259;28;20030;-73
2023/04/25 04:11:10;;;;;;;3.95;2.50;;;12.00;74.60;;;;;;5000373;28;20026;-74
2023/04/25 04:13:36;;;;;;;5.22;2.40;;;12.00;74.80;;;;;;4998533;28;20034;-74
2023/04/25 04:16:03;;;;;;;2.78;2.28;;;12.00;74.70;;;;;;4998410;28;20032;-74
2023/04/25 04:18:30;;;;;;;3.45;2.30;;;12.00;74.60;;;;;;4998367;28;20030;-74
2023/04/25 04:20:57;;;;;;;2.35;1.98;;;12.10;74.30;;;;;;4998414;28;20444;-73
2023/04/25 04:23:23;;;;;;;2.63;2.30;;;12.10;74.20;;;;;;4997992;28;20084;-74
2023/04/25 04:25:49;;;;;;;2.38;1.88;;;12.20;74.10;;;;;;4998278;28;20030;-74
2023/04/25 04:28:16;;;;;;;2.40;2.20;;;12.30;73.90;;;;;;4998141;28;20474;-74
2023/04/25 04:30:42;;;;;;;3.90;2.80;;;12.40;73.80;;;;;;4997936;28;20033;-74
2023/04/25 04:33:09;;;;;;;3.70;2.70;;;12.40;74.10;;;;;;4998174;28;20027;-73
2023/04/25 04:35:35;;;;;;;3.50;2.50;;;12.40;74.20;;;;;;4997840;28;20054;-73
2023/04/25 04:38:01;;;;;;;2.75;2.30;;;12.40;74.20;;;;;;4997728;28;20091;-74
2023/04/25 04:40:27;;;;;;;2.67;2.10;;;12.50;74.30;;;;;;4997721;28;20055;-74
2023/04/25 04:42:53;;;;;;;3.03;2.08;;;12.50;74.10;;;;;;4997943;28;20023;-73
2023/04/25 04:45:19;;;;;;;2.75;1.65;;;12.50;74.10;;;;;;4997923;28;20525;-74
2023/04/25 04:47:45;;;;;;;2.13;1.67;;;12.50;74.00;;;;;;4997719;28;20052;-74
2023/04/25 04:50:11;;;;;;;2.00;1.80;;;12.60;74.00;;;;;;4997810;28;20045;-74
2023/04/25 04:52:38;;;;;;;2.53;2.10;;;12.60;73.90;;;;;;4997539;28;20026;-74
2023/04/25 04:55:05;;;;;;;2.45;2.05;;;12.60;73.90;;;;;;4997717;28;20053;-74
2023/04/25 04:57:32;;;;;;;2.47;2.00;;;12.60;74.10;;;;;;4997019;28;20050;-74
2023/04/25 04:59:59;;;;;;;3.40;2.20;;;12.70;74.00;;;;;;4997281;28;20050;-74
2023/04/25 05:02:25;;;;;;;4.10;2.63;;;12.70;74.00;;;;;;4997324;28;20101;-74
2023/04/25 05:04:51;;;;;;;2.95;2.40;;;12.70;74.70;;;;;;4997806;28;20141;-73
2023/04/25 05:07:18;;;;;;;3.13;2.10;;;12.70;74.70;;;;;;4996295;28;20019;-74
2023/04/25 05:09:44;;;;;;;3.10;1.80;;;12.70;74.60;;;;;;4997436;28;20027;-74
2023/04/25 05:12:10;;;;;;;2.65;2.05;;;12.70;74.40;;;;;;4997130;28;20321;-74
2023/04/25 05:14:36;;;;;;;1.83;1.73;;;12.70;74.30;;;;;;4997656;28;20022;-73
2023/04/25 05:17:04;;;;;;;2.88;2.25;;;12.70;74.20;;;;;;4996988;28;20351;-74
2023/04/25 05:19:30;;;;;;;3.67;2.60;;;12.80;74.20;;;;;;4996926;28;20041;-73
2023/04/25 05:21:56;;;;;;;2.47;2.20;;;12.80;74.30;;;;;;4996619;28;20349;-74
2023/04/25 05:24:22;;;;;;;3.53;2.22;;;12.80;74.20;;;;;;4997128;28;20026;-74
2023/04/25 05:26:48;;;;;;;2.92;1.90;;;12.80;74.80;;;;;;4996906;28;20101;-73
2023/04/25 05:29:14;;;;;;;2.97;2.00;;;12.80;75.00;;;;;;4997307;28;20332;-74
2023/04/25 05:31:40;;;;;;;2.70;2.20;;;12.80;74.80;;;;;;4996800;28;20030;-74
2023/04/25 05:34:05;;;;;;;2.40;2.10;;;12.80;75.30;;;;;;4997271;28;20026;-74
2023/04/25 05:36:32;;;;;;;2.90;2.30;;;12.80;75.30;;;;;;4995673;28;20029;-74
2023/04/25 05:38:58;;;;;;;2.13;1.92;;;12.70;75.70;;;;;;4996671;28;20014;-74
2023/04/25 05:41:24;;;;;;;2.80;1.88;;;12.70;75.30;;;;;;4996619;28;20044;-74
2023/04/25 05:43:50;;;;;;;2.92;1.85;;;12.70;75.20;;;;;;4996583;28;20030;-74
2023/04/25 05:46:19;;;;;;;2.75;2.20;;;12.70;74.90;;;;;;4996462;28;20022;-74
2023/04/25 05:48:45;;;;;;;4.13;2.17;;;12.70;74.90;;;;;;4996387;28;20093;-74
2023/04/25 05:51:11;;;;;;;3.38;2.00;;;12.80;75.10;;;;;;4996682;28;20063;-74
2023/04/25 05:53:37;;;;;;;3.28;2.20;;;12.70;75.20;;;;;;4996693;28;20042;-74
2023/04/25 05:56:03;;;;;;;2.78;2.40;;;12.80;75.10;;;;;;4996588;28;20014;-74
2023/04/25 05:58:29;;;;;;;3.03;1.92;;;12.80;75.10;;;;;;4996867;28;20492;-74
2023/04/25 06:00:55;;;;;;;4.05;2.47;;;12.80;75.00;;;;;;4996272;28;20475;-74
2023/04/25 06:03:21;;;;;;;2.55;2.35;;;12.90;74.90;;;;;;4996261;28;20035;-73
2023/04/25 06:05:47;;;;;;;4.95;3.15;;;12.90;75.00;;;;;;4996208;28;20040;-74
2023/04/25 06:08:13;;;;;;;3.90;2.90;;;12.90;75.10;;;;;;4996333;28;20038;-74
2023/04/25 06:10:39;;;;;;;5.15;3.20;;;12.90;75.40;;;;;;4996151;28;20440;-74
2023/04/25 06:13:05;;;;;;;3.25;2.63;;;12.90;75.20;;;;;;4996151;28;20022;-73
2023/04/25 06:15:32;;;;;;;3.88;2.67;;;12.90;75.60;;;;;;4996030;28;20073;-76
2023/04/25 06:17:58;;;;;;;3.35;2.47;;;12.80;75.30;;;;;;4995983;28;20018;-76
2023/04/25 06:20:25;;;;;;;2.50;2.10;;;12.80;75.20;;;;;;4996171;28;20108;-76
2023/04/25 06:22:51;;;;;;;2.45;1.95;;;12.90;75.20;;;;;;4996297;28;20037;-74
2023/04/25 06:25:17;;;;;;;3.42;2.22;;;12.90;75.20;;;;;;4995891;28;20027;-74
2023/04/25 06:27:43;;;;;;;4.13;2.80;;;12.90;75.20;;;;;;4995736;28;20077;-75
2023/04/25 06:30:11;;;;;;;4.57;2.80;;;12.90;75.20;;;;;;4995899;28;20030;-74
2023/04/25 06:32:38;;;;;;;3.92;2.78;;;12.90;75.20;;;;;;4995817;28;20026;-75
2023/04/25 06:35:05;;;;;;;5.28;3.75;;;12.90;75.20;;;;;;4996090;28;20034;-74
2023/04/25 06:37:31;;;;;;;5.13;3.50;;;12.90;75.20;;;;;;4995707;28;20088;-74
2023/04/25 06:39:56;;;;;;;5.65;3.42;;;12.90;75.20;;;;;;4996806;28;20031;-74
2023/04/25 06:42:22;;;;;;;5.43;3.30;;;12.90;75.30;;;;;;4995999;28;20333;-74
2023/04/25 06:44:48;;;;;;;3.30;2.63;;;12.90;75.10;;;;;;4996035;28;20054;-74
2023/04/25 06:47:15;;;;;;;3.50;2.85;;;12.90;75.00;;;;;;4995668;28;20037;-73
2023/04/25 06:49:41;;;;;;;4.25;2.78;;;12.90;75.10;;;;;;4995992;28;20030;-74
2023/04/25 06:52:07;;;;;;;5.03;2.78;;;12.90;75.20;;;;;;4995720;28;20073;-76
2023/04/25 06:54:33;;;;;;;4.68;2.80;;;12.90;75.20;;;;;;4995522;28;20452;-74
2023/04/25 06:57:00;;;;;;;4.50;2.70;;;12.90;75.30;;;;;;4995257;28;20133;-73
2023/04/25 06:59:26;;;;;;;3.10;2.58;;;12.90;75.20;;;;;;4995872;28;20456;-72
2023/04/25 07:01:52;;;;;;;3.42;2.67;;;12.90;75.20;;;;;;4995563;28;20412;-72
2023/04/25 07:04:18;;;;;;;3.45;2.40;;;12.90;75.00;;;;;;4996142;28;20109;-72
2023/04/25 07:06:44;;;;;;;5.53;2.65;;;12.90;75.00;;;;;;4995706;28;20101;-74
2023/04/25 07:09:11;;;;;;;4.40;2.20;;;12.90;75.00;;;;;;4995560;28;20030;-73
2023/04/25 07:11:37;;;;;;;3.88;2.30;;;12.90;75.10;;;;;;4996073;28;20073;-72
2023/04/25 07:14:03;;;;;;;3.25;2.60;;;12.90;75.00;;;;;;4995526;28;20022;-71
2023/04/25 07:16:29;;;;;;;5.57;3.05;;;12.90;75.10;;;;;;4995786;28;20018;-72
2023/04/25 07:18:55;;;;;;;3.67;2.85;;;12.90;75.10;;;;;;4995486;28;20034;-75
2023/04/25 07:21:21;;;;;;;3.05;2.30;;;12.90;75.00;;;;;;4995489;28;20026;-75
2023/04/25 07:23:47;;;;;;;2.80;2.30;;;12.90;75.00;;;;;;4995995;28;20033;-75
2023/04/25 07:26:13;;;;;;;4.93;3.10;;;12.90;75.00;;;;;;4995964;28;20019;-75
2023/04/25 07:28:39;;;;;;;3.92;2.50;;;12.90;75.20;;;;;;4995589;28;20189;-75
2023/04/25 07:31:05;;;;;;;3.85;2.60;;;12.90;75.10;;;;;;4996567;28;20099;-75
2023/04/25 07:33:31;;;;;;;5.88;2.97;;;12.80;75.10;;;;;;4999554;28;20022;-75
2023/04/25 07:35:57;;;;;;;3.80;2.80;;;12.80;75.10;;;;;;4998623;28;20101;-75
2023/04/25 07:38:23;;;;;;;4.45;2.78;;;12.70;75.10;;;;;;4998716;28;20069;-74
2023/04/25 07:40:49;;;;;;;6.63;3.60;;;12.70;75.10;;;;;;4998905;28;20080;-73
2023/04/25 07:43:16;;;;;;;4.43;3.65;;;12.60;75.40;;;;;;4997590;28;20026;-72
2023/04/25 07:45:46;;;;;;;3.80;2.70;;;12.70;75.40;;;;;;4999031;28;20040;-72
2023/04/25 07:48:16;;;;;;;4.15;2.60;;;12.70;75.50;;;;;;4998566;28;20073;-72
2023/04/25 07:50:41;;;;;;;5.40;2.78;;;12.60;75.50;;;;;;4998910;28;20022;-73
2023/04/25 07:53:07;;;;;;;4.32;2.90;;;12.60;75.80;;;;;;4998821;28;20029;-72
2023/04/25 07:55:39;;;;;;;6.70;2.95;;;12.60;75.90;;;;;;5002030;28;20068;-71
2023/04/25 07:58:09;;;;;;;4.25;3.08;;;12.60;75.60;;;;;;5003028;28;20054;-72
2023/04/25 08:00:35;;;;;;;5.88;3.53;;;12.60;75.70;;;;;;5006770;28;20026;-74
2023/04/25 08:03:01;;;;;;;3.15;2.78;;;12.60;75.80;;;;;;5843135;22;20130;-73
2023/04/25 08:05:26;;;;;;;5.05;3.10;;;12.70;76.10;;;;;;5036433;28;20464;-72
2023/04/25 08:07:52;;;;;;;5.10;3.05;;;12.70;76.30;;;;;;5037326;28;20038;-74
2023/04/25 08:10:18;;;;;;;5.18;3.50;;;12.70;76.20;;;;;;5039583;28;20084;-73
2023/04/25 08:12:44;;;;;;;6.00;3.17;;;12.70;76.60;;;;;;5046574;28;20053;-74
2023/04/25 08:15:10;;;;;;;3.83;2.70;;;12.70;77.30;;;;;;5046312;28;20407;-75
2023/04/25 08:17:36;;;;;;;5.30;3.42;;;12.70;77.20;;;;;;5041384;28;20100;-74
2023/04/25 08:20:05;;;;;;;5.97;3.17;;;12.70;77.80;;;;;;5036429;28;20032;-75
2023/04/25 08:22:31;;;;;;;4.95;3.20;;;12.60;77.90;;;;;;5541028;22;20087;-73
2023/04/25 08:24:57;;;;;;;4.10;2.70;;;12.60;77.40;;;;;;5036557;28;20033;-72
2023/04/25 08:27:23;;;;;;;5.22;2.88;;;12.60;77.20;;;;;;5036552;28;20064;-73
2023/04/25 08:29:50;;;;;;;3.67;2.90;;;12.60;76.90;;;;;;5036967;28;20350;-73
2023/04/25 08:32:16;;;;;;;4.78;3.15;;;12.70;77.00;;;;;;5036595;28;20135;-70
2023/04/25 08:34:43;;;;;;;3.90;2.70;;;12.70;76.90;;;;;;5036957;28;20025;-71
2023/04/25 08:37:10;;;;;;;6.20;3.75;;;12.80;76.70;;;;;;5036768;28;20048;-71
2023/04/25 08:39:36;;;;;;;7.60;4.18;;;12.80;78.00;;;;;;5036825;28;20501;-70
2023/04/25 08:42:10;;;;;;;6.55;3.33;;;12.70;77.90;;;;;;5035884;28;20035;-71
2023/04/25 08:44:36;;;;;;;4.85;2.72;;;12.60;78.90;;;;;;5036967;28;20033;-71
2023/04/25 08:47:04;;;;;;;3.97;2.78;;;12.50;79.40;;;;;;5036600;28;20104;-72
2023/04/25 08:49:34;;;;;;;3.58;2.63;;;12.50;79.20;;;;;;5036513;28;20018;-72
2023/04/25 08:52:03;;;;;;;4.07;2.60;;;12.50;78.80;;;;;;5036199;28;20442;-71
2023/04/25 08:54:31;;;;;;;5.28;3.25;;;12.50;79.50;;;;;;5036804;28;20036;-71
2023/04/25 08:57:04;;;;;;;4.82;3.38;;;12.60;80.10;;;;;;5036446;28;20029;-72
2023/04/25 08:59:31;;;;;;;4.57;3.00;;;12.60;79.70;;;;;;5036520;28;20105;-71
2023/04/25 09:01:57;;;;;;;3.92;2.75;;;12.70;78.90;;;;;;5036243;28;20040;-71
2023/04/25 09:04:24;;;;;;;3.53;2.42;;;12.70;79.00;;;;;;5036305;28;20025;-71
2023/04/25 09:06:50;;;;;;;2.25;1.80;;;12.70;78.50;;;;;;5036309;28;20108;-70
2023/04/25 09:09:16;;;;;;;2.30;1.80;;;12.70;78.20;;;;;;5036198;28;20017;-70
2023/04/25 09:11:42;;;;;;;2.95;1.70;;;12.80;77.40;;;;;;5036040;28;20025;-71
2023/04/25 09:14:21;;;;;;;1.60;1.45;;;12.90;76.40;;;;;;5036154;28;20024;-72
2023/04/25 09:16:56;;;;;;;2.50;1.50;;;13.00;76.60;;;;;;5036129;28;20121;-71
2023/04/25 09:19:30;;;;;;;1.70;1.50;;;13.20;76.40;;;;;;5036191;28;20442;-70
2023/04/25 09:22:01;;;;;;;;;;;13.30;76.20;;;;;;5035939;28;20097;-70
2023/04/25 09:24:49;;;;;;;2.42;1.98;;;13.40;76.00;;;;;;5036007;28;20003;-70
2023/04/25 09:27:22;;;;;;;3.25;2.03;;;13.50;76.50;;;;;;5036167;28;20061;-70
2023/04/25 09:29:55;;;;;;;1.90;1.37;;;13.70;76.80;;;;;;5036162;28;20026;-70
2023/04/25 09:32:25;;;;;;;1.75;1.20;;;13.80;73.70;;;;;;5035805;28;20260;-70
2023/04/25 09:34:53;;;;;;;1.20;1.10;;;13.80;72.60;;;;;;5035371;28;20049;-70
2023/04/25 09:37:21;;;;;;;1.50;1.40;;;13.90;72.40;;;;;;5035545;28;20354;-70
2023/04/25 09:39:53;;;;;;;1.95;1.73;;;13.90;72.30;;;;;;5035617;28;20045;-71
2023/04/25 09:42:23;;;;;;;1.95;1.35;;;14.00;72.30;;;;;;5034512;28;20039;-70
2023/04/25 09:44:52;;;;;;;1.95;1.58;;;14.10;70.60;;;;;;5035999;28;20057;-71
2023/04/25 09:47:21;;;;;;;2.58;1.70;;;14.10;71.20;;;;;;5035445;28;20091;-71
2023/04/25 09:49:47;;;;;;;1.58;1.48;;;14.10;69.60;;;;;;5035311;28;20029;-70
2023/04/25 09:52:16;;;;;;;2.60;2.40;;;14.20;72.00;;;;;;5024680;28;20034;-71
2023/04/25 09:54:42;;;;;;;1.63;1.40;;;14.40;70.90;;;;;;5014296;28;20112;-69
2023/04/25 09:57:18;;;;;;;2.90;2.10;;;14.40;69.40;;;;;;5015419;28;20097;-71
2023/04/25 09:59:52;;;;;;;2.95;2.03;;;14.40;71.60;;;;;;5015532;28;20056;-70
2023/04/25 10:02:23;;;;;;;1.50;1.40;;;14.40;69.80;;;;;;5014639;28;20076;-70
2023/04/25 10:04:52;;;;;;;2.13;1.63;;;14.40;68.10;;;;;;5015251;28;20025;-72
2023/04/25 10:07:20;;;;;;;2.85;1.60;;;14.50;68.50;;;;;;5015116;28;20029;-70
2023/04/25 10:09:50;;;;;;;2.47;2.00;;;14.50;68.90;;;;;;5015293;28;20492;-72
2023/04/25 10:12:16;;;;;;;1.70;1.55;;;14.60;67.30;;;;;;5014871;28;20029;-71
2023/04/25 10:14:43;;;;;;;1.70;1.60;;;14.70;68.50;;;;;;5026579;28;20022;-70
2023/04/25 10:17:11;;;;;;;2.10;1.90;;;14.90;68.80;;;;;;5032542;28;20029;-68
2023/04/25 10:19:37;;;;;;;3.00;2.22;;;14.90;66.90;;;;;;5034324;28;20033;-70
2023/04/25 10:22:08;;;;;;;2.17;1.80;;;15.00;66.50;;;;;;5034512;28;20053;-73
2023/04/25 10:24:36;;;;;;;2.97;2.20;;;15.10;67.20;;;;;;5034889;28;20075;-70
2023/04/25 10:27:02;;;;;;;3.60;1.77;;;15.10;66.40;;;;;;5034682;28;20408;-76
2023/04/25 10:29:28;;;;;;;1.80;1.70;;;15.10;64.60;;;;;;5034655;28;20040;-74
2023/04/25 10:31:55;;;;;;;2.53;1.90;;;15.10;66.50;;;;;;5033626;28;20037;-72
2023/04/25 10:34:42;;;;;;;2.85;1.88;;;15.20;68.20;;;;;;5034274;28;20064;-74
2023/04/25 10:37:10;;;;;;;1.90;1.60;;;15.30;65.20;;;;;;5033538;28;20053;-76
2023/04/25 10:39:37;;;;;;;1.80;1.70;;;15.30;66.30;;;;;;5033540;28;20040;-71
2023/04/25 10:42:03;;;;;;;2.00;1.77;;;15.30;67.60;;;;;;5034453;28;20033;-69
2023/04/25 10:44:30;;;;;;;1.50;1.40;;;15.30;68.10;;;;;;5034497;28;20047;-76
2023/04/25 10:46:58;;;;;;;2.85;1.50;;;15.40;67.20;;;;;;5033366;28;20025;-74
2023/04/25 10:49:43;;;;;;;2.20;1.77;;;15.60;66.60;;;;;;5034411;28;20032;-69
2023/04/25 10:52:19;;;;;;;1.60;1.50;;;15.70;66.60;;;;;;5034301;28;20029;-73
2023/04/25 10:54:52;;;;;;;2.25;1.77;;;15.70;64.90;;;;;;5034607;28;20445;-74
2023/04/25 10:57:36;;;;;;;2.20;1.98;;;15.70;65.10;;;;;;5034467;28;20079;-75
2023/04/25 11:00:09;;;;;;;2.92;1.92;;;15.70;64.50;;;;;;5034626;28;20079;-75
2023/04/25 11:02:42;;;;;;;2.33;2.10;;;15.70;64.00;;;;;;5034258;28;20125;-76
2023/04/25 11:05:10;;;;;;;3.65;2.58;;;15.60;64.20;;;;;;5028288;28;20021;-71
2023/04/25 11:07:48;;;;;;;2.95;2.40;;;15.70;65.40;;;;;;5034171;28;20037;-71
2023/04/25 11:10:15;;;;;;;1.70;1.60;;;15.50;65.90;;;;;;5035623;28;20493;-69
2023/04/25 11:12:41;;;;;;;1.98;1.80;;;15.60;66.40;;;;;;5020977;28;20053;-75
2023/04/25 11:15:07;;;;;;;2.70;1.88;;;15.70;65.80;;;;;;5018435;28;20061;-73
2023/04/25 11:17:33;;;;;;;2.30;2.10;;;15.70;66.00;;;;;;5037938;28;20145;-73
2023/04/25 11:20:00;;;;;;;1.70;1.55;;;15.80;65.60;;;;;;5038192;28;20053;-68
2023/04/25 11:22:27;;;;;;;2.28;1.90;;;15.90;66.50;;;;;;5037130;28;20055;-74
2023/04/25 11:24:53;;;;;;;4.82;1.80;;;15.90;62.40;;;;;;5037173;28;20039;-77
2023/04/25 11:27:20;;;;;;;1.80;1.50;;;15.90;64.60;;;;;;5036946;28;20108;-74
2023/04/25 11:29:47;;;;;;;3.53;1.67;;;16.00;65.10;;;;;;5036213;28;20022;-72
2023/04/25 11:32:16;;;;;;;2.25;1.98;;;16.10;64.10;;;;;;5035996;28;20065;-73
2023/04/25 11:34:45;;;;;;;1.50;1.40;;;16.10;63.80;;;;;;5036440;28;20091;-74
2023/04/25 11:37:14;;;;;;;2.67;2.13;;;16.00;62.00;;;;;;5034388;28;20465;-71
2023/04/25 11:39:44;;;;;;;3.35;2.22;;;15.90;65.40;;;;;;5037671;28;20071;-70
2023/04/25 11:42:10;;;;;;;2.70;2.17;;;15.70;66.80;;;;;;5036793;28;20087;-73
2023/04/25 11:44:39;;;;;;;3.53;2.00;;;15.70;66.80;;;;;;5036506;28;20116;-73
2023/04/25 11:47:05;;;;;;;1.98;1.80;;;15.90;66.50;;;;;;5037462;28;20040;-72
2023/04/25 11:49:32;;;;;;;2.13;1.73;;;15.90;65.20;;;;;;5037323;28;20025;-72
2023/04/25 11:51:58;;;;;;;1.55;1.30;;;16.00;65.20;;;;;;5037290;28;20021;-72
2023/04/25 11:54:23;;;;;;;2.22;1.60;;;16.00;64.90;;;;;;5037246;28;20035;-73
2023/04/25 11:56:50;;;;;;;2.92;1.67;;;16.10;64.50;;;;;;5037408;28;20025;-71
2023/04/25 11:59:16;;;;;;;2.38;1.45;;;16.10;63.40;;;;;;5037159;28;20033;-74
2023/04/25 12:01:49;;;;;;;1.40;1.30;;;16.00;63.60;;;;;;5037148;28;20394;-72
2023/04/25 12:04:17;;;;;;;1.83;1.50;;;15.90;63.10;;;;;;5037402;28;20109;-74
2023/04/25 12:06:48;;;;;;;1.98;1.70;;;15.90;64.20;;;;;;5037095;28;20053;-67
2023/04/25 12:09:17;;;;;;;1.40;1.30;;;15.90;63.90;;;;;;5033718;28;20037;-72
2023/04/25 12:11:44;;;;;;;1.92;1.23;;;15.90;64.40;;;;;;5037378;28;20033;-72
2023/04/25 12:14:10;;;;;;;1.35;1.25;;;15.90;64.90;;;;;;5036800;28;20038;-70
2023/04/25 12:16:45;;;;;;;1.38;1.27;;;15.90;63.30;;;;;;5036879;28;20095;-71
2023/04/25 12:19:16;;;;;;;1.20;1.10;;;15.90;63.40;;;;;;5036921;28;20039;-72
2023/04/25 12:21:43;;;;;;;1.50;1.40;;;15.90;63.00;;;;;;5036988;28;20401;-79
2023/04/25 12:24:25;;;;;;;2.65;1.67;;;15.80;61.70;;;;;;5036697;28;20050;-70
2023/04/25 12:27:00;;;;;;;2.40;1.30;;;15.70;61.50;;;;;;5036874;28;20028;-68
2023/04/25 12:29:28;;;;;;;1.63;1.35;;;15.70;61.00;;;;;;5035285;28;20032;-71
2023/04/25 12:31:56;;;;;;;1.60;1.50;;;15.60;61.60;;;;;;5035870;28;20381;-71
2023/04/25 12:34:23;;;;;;;1.67;1.50;;;15.50;61.60;;;;;;5036422;28;20033;-69
2023/04/25 12:37:11;;;;;;;2.38;1.73;;;15.50;62.00;;;;;;5037156;28;20108;-70
2023/04/25 12:39:41;;;;;;;2.35;1.42;;;15.30;63.30;;;;;;5035725;28;20037;-69
2023/04/25 12:42:13;;;;;;;3.97;1.50;;;15.20;63.60;;;;;;5036471;28;20014;-73
2023/04/25 12:44:39;;;;;;;3.45;1.80;;;15.10;63.90;;;;;;5030990;28;20116;-70
2023/04/25 12:47:05;;;;;;;2.97;1.88;;;15.00;64.80;;;;;;5036722;28;20415;-71
2023/04/25 12:49:31;;;;;;;1.90;1.60;;;14.90;65.30;;;;;;5036506;28;20072;-70